Terminal Aerodrome Forecast
Issued by NWS Wilmington, OH

Current Version | Previous Version | Graphics & Text | Print | Product List | Glossary On
Versions: 1 2 3 4 5 6 7 8 9 10 11 12 13 14 15 16 17 18 19 20 21 22 23
000
FTUS41 KILN 302100 AAA
TAFCVG
TAF AMD
KCVG 302104Z 3021/3124 22008KT P6SM -SHRA BKN070 OVC200
      TEMPO 3021/3023 4SM -TSRA BKN050CB
     FM302300 21007KT 5SM -SHRA BR BKN050 OVC090
     FM310300 20005KT 4SM -SHRA BR OVC012
     FM311300 19006KT P6SM VCSH OVC015
     FM311700 19008KT P6SM -SHRA VCTS BKN025CB OVC150
     FM312200 18005KT P6SM VCSH BKN035=

USA.gov is the U.S. government's official web portal to all federal, state and local government web resources and services.